createdAt,value
2023-05-06T00:00:08.839Z,9.762541806020067
2023-05-06T00:06:28.263Z,10.137123745819398
2023-05-06T00:15:39.433Z,13.528428093645484
2023-05-06T00:26:48.175Z,13.110367892976589
2023-05-06T00:43:19.988Z,12.578595317725753
2023-05-06T00:49:39.473Z,13.632107023411372
2023-05-06T00:55:59.190Z,11.91304347826087
2023-05-06T01:02:18.666Z,10.986622073578594
2023-05-06T01:08:38.793Z,11.123745819397993
2023-05-06T01:14:58.601Z,9.785953177257525
2023-05-06T01:28:39.139Z,9.040133779264215
2023-05-06T01:34:58.575Z,8.357859531772576
2023-05-06T01:44:43.498Z,11.334448160535118
2023-05-06T01:51:02.794Z,14.585284280936454
2023-05-06T02:02:11.784Z,15.063545150501673
2023-05-06T02:08:31.194Z,13.80267558528428
2023-05-06T02:14:50.011Z,13.377926421404682
2023-05-06T02:21:08.946Z,14.929765886287626
2023-05-06T02:27:30.786Z,11.903010033444817
2023-05-06T02:33:50.736Z,13.789297658862877
2023-05-06T02:40:11.001Z,13.214046822742475
2023-05-06T02:49:24.644Z,10.33779264214047
2023-05-06T02:56:05.060Z,11.023411371237458
2023-05-06T03:02:28.332Z,10.414715719063546
2023-05-06T03:10:32.730Z,10.160535117056856
2023-05-06T03:16:51.628Z,10.180602006688963
2023-05-06T03:23:32.140Z,11.391304347826088
2023-05-06T03:29:52.726Z,8.722408026755852
2023-05-06T03:41:51.478Z,7.431438127090301
2023-05-06T03:48:10.586Z,7.297658862876254
2023-05-06T03:56:15.670Z,8.290969899665551
2023-05-06T04:04:42.999Z,5.765886287625418
2023-05-06T04:11:03.251Z,6.605351170568562
2023-05-06T04:17:26.808Z,7.421404682274248
2023-05-06T04:23:52.222Z,6.508361204013378
2023-05-06T04:30:17.104Z,7.688963210702341
2023-05-06T04:36:41.437Z,8.531772575250836
2023-05-06T04:47:47.704Z,11.217391304347826
2023-05-06T04:54:09.688Z,11.237458193979933
2023-05-06T05:00:32.436Z,8.180602006688963
2023-05-06T05:06:56.604Z,11.76923076923077
2023-05-06T05:18:06.210Z,8.107023411371237
2023-05-06T05:24:30.545Z,7.3879598662207355
2023-05-06T05:30:53.197Z,8.451505016722408
2023-05-06T05:37:18.546Z,7.498327759197324
2023-05-06T05:43:43.264Z,10.464882943143813
2023-05-06T05:52:50.352Z,6.394648829431438
2023-05-06T06:03:46.132Z,6.1806020066889635
2023-05-06T06:11:33.906Z,7.6755852842809364
2023-05-06T06:18:14.789Z,6.2441471571906355
2023-05-06T06:24:38.369Z,6.806020066889632
2023-05-06T06:31:02.866Z,9.74247491638796
2023-05-06T06:39:44.197Z,7.448160535117057
2023-05-06T06:58:22.003Z,5.491638795986622
2023-05-06T07:16:40.974Z,6.478260869565218
2023-05-06T07:27:52.655Z,15.949832775919733
2023-05-06T07:36:05.684Z,21.17391304347826
2023-05-06T07:42:34.688Z,16.42809364548495
2023-05-06T07:49:05.458Z,28.464882943143813
2023-05-06T08:00:00.054Z,30.712374581939798
2023-05-06T08:10:46.573Z,36.709030100334445
2023-05-06T08:29:45.809Z,14.080267558528428
2023-05-06T08:36:08.846Z,12.77257525083612
2023-05-06T08:42:31.710Z,13.806020066889632
2023-05-06T08:53:10.835Z,17.862876254180602
2023-05-06T08:59:33.120Z,17.68561872909699
2023-05-06T09:05:56.659Z,18.99665551839465
2023-05-06T09:15:26.875Z,22.63545150501672
2023-05-06T09:21:56.065Z,14.548494983277592
2023-05-06T09:30:31.608Z,27.80267558528428
2023-05-06T09:36:55.253Z,28.779264214046822
2023-05-06T09:43:18.476Z,22.441471571906355
2023-05-06T09:49:40.642Z,19.123745819397993
2023-05-06T09:56:02.547Z,16.03010033444816
2023-05-06T10:02:25.119Z,13.364548494983278
2023-05-06T10:14:48.222Z,11.933110367892976
2023-05-06T10:21:11.238Z,11.20401337792642
2023-05-06T10:27:34.140Z,10.488294314381271
2023-05-06T10:33:56.614Z,8.073578595317725
2023-05-06T10:42:31.494Z,4.655518394648829
2023-05-06T10:52:44.928Z,5.919732441471572
2023-05-06T10:59:07.489Z,3.7759197324414715
2023-05-06T11:05:29.275Z,5.210702341137123
2023-05-06T11:15:15.283Z,3.190635451505017
2023-05-06T11:21:37.490Z,5.725752508361204
2023-05-06T11:31:37.886Z,6.050167224080267
2023-05-06T11:38:01.298Z,7.966555183946488
2023-05-06T11:44:24.920Z,7.752508361204013
2023-05-06T11:50:48.255Z,4.377926421404682
2023-05-06T11:57:11.299Z,3.294314381270903
2023-05-06T12:06:45.370Z,4.48494983277592
2023-05-06T12:13:07.979Z,1.7725752508361203
2023-05-06T12:19:31.453Z,4.511705685618729
2023-05-06T12:30:11.670Z,4.588628762541806
2023-05-06T12:36:35.089Z,5.157190635451505
2023-05-06T12:42:58.450Z,4.936454849498328
2023-05-06T12:49:22.827Z,3.632107023411371
2023-05-06T12:55:48.028Z,5.775919732441472
2023-05-06T13:02:10.426Z,5.421404682274248
2023-05-06T13:11:52.559Z,4.013377926421405
2023-05-06T13:18:17.176Z,4.986622073578595
2023-05-06T13:24:39.657Z,6.010033444816053
2023-05-06T13:31:03.110Z,3.190635451505017
2023-05-06T13:37:26.956Z,2.3979933110367893
2023-05-06T13:49:28.119Z,2.3377926421404682
2023-05-06T13:55:50.757Z,2.62876254180602
2023-05-06T14:02:13.900Z,1.785953177257525
2023-05-06T14:13:50.355Z,2.180602006688963
2023-05-06T14:20:12.864Z,2.060200668896321
2023-05-06T14:26:35.232Z,2.0535117056856187
2023-05-06T14:36:45.800Z,2.678929765886288
2023-05-06T14:43:08.852Z,2.568561872909699
2023-05-06T14:49:31.284Z,1.6321070234113713
2023-05-06T14:55:54.011Z,1.2307692307692308
2023-05-06T15:08:00.610Z,1.7926421404682273
2023-05-06T15:14:24.028Z,2.411371237458194
2023-05-06T15:20:46.573Z,1.919732441471572
2023-05-06T15:27:09.579Z,2.5183946488294313
2023-05-06T15:36:18.603Z,7.1806020066889635
2023-05-06T15:44:32.108Z,3.668896321070234
2023-05-06T15:50:53.913Z,2.9130434782608696
2023-05-06T15:57:17.880Z,3.210702341137124
2023-05-06T16:08:19.476Z,3.3779264214046822
2023-05-06T16:14:44.009Z,4.193979933110368
2023-05-06T16:21:07.748Z,6.270903010033445
2023-05-06T16:27:29.364Z,5.260869565217392
2023-05-06T16:33:51.673Z,4.7959866220735785
2023-05-06T16:40:15.966Z,4.37123745819398
2023-05-06T16:46:38.526Z,6.1003344481605355
2023-05-06T16:59:08.786Z,6.183946488294314
2023-05-06T17:05:30.832Z,5.54180602006689
2023-05-06T17:11:52.860Z,6.2207357859531776
2023-05-06T17:18:15.456Z,5.759197324414716
2023-05-06T17:24:38.369Z,5.929765886287625
2023-05-06T17:30:59.814Z,6.678929765886288
2023-05-06T17:37:34.236Z,6.1003344481605355
2023-05-06T17:43:56.160Z,4.682274247491639
2023-05-06T17:50:18.224Z,5.896321070234114
2023-05-06T17:56:40.432Z,4.889632107023411
2023-05-06T18:03:03.653Z,6.832775919732441
2023-05-06T18:09:25.276Z,7.421404682274248
2023-05-06T18:21:09.028Z,7.110367892976589
2023-05-06T18:27:30.659Z,7.1806020066889635
2023-05-06T18:33:52.230Z,7.337792642140468
2023-05-06T18:40:13.624Z,7.093645484949833
2023-05-06T18:46:35.312Z,7.735785953177258
2023-05-06T19:05:14.539Z,6.645484949832776
2023-05-06T19:11:34.709Z,6.936454849498328
2023-05-06T19:19:58.215Z,8.173913043478262
2023-05-06T19:26:18.364Z,7.498327759197324
2023-05-06T19:36:24.539Z,10.244147157190636
2023-05-06T19:42:47.095Z,10.280936454849499
2023-05-06T19:49:06.982Z,13.133779264214047
2023-05-06T19:56:59.163Z,7.903010033444816
2023-05-06T20:03:25.039Z,8.03010033444816
2023-05-06T20:09:44.501Z,8.872909698996656
2023-05-06T20:16:06.502Z,6.903010033444816
2023-05-06T20:22:26.153Z,7.7324414715719065
2023-05-06T20:28:45.398Z,4.635451505016722
2023-05-06T20:35:07.051Z,6.822742474916388
2023-05-06T20:41:26.433Z,8.20401337792642
2023-05-06T20:47:47.029Z,7.2842809364548495
2023-05-06T20:54:09.053Z,6.595317725752508
2023-05-06T21:00:28.490Z,7.1404682274247495
2023-05-06T21:06:47.672Z,8.471571906354516
2023-05-06T21:17:47.599Z,8.976588628762542
2023-05-06T21:24:08.008Z,10.471571906354516
2023-05-06T21:40:33.764Z,11.521739130434783
2023-05-06T21:47:08.508Z,7.789297658862877
2023-05-06T21:55:09.147Z,9.82943143812709
2023-05-06T22:05:41.249Z,10.096989966555183
2023-05-06T22:12:02.652Z,10.096989966555183
2023-05-06T22:18:23.102Z,10.688963210702342
2023-05-06T22:24:42.998Z,11.294314381270903
2023-05-06T22:31:03.004Z,11.153846153846153
2023-05-06T22:38:23.012Z,12.294314381270903
2023-05-06T22:44:49.057Z,12.40133779264214
2023-05-06T22:51:09.329Z,12.494983277591974
2023-05-06T22:57:30.809Z,12.461538461538462
2023-05-06T23:03:50.325Z,12.066889632107024
2023-05-06T23:10:10.398Z,10.461538461538462
2023-05-06T23:16:29.837Z,9.34448160535117
2023-05-06T23:22:49.640Z,12.31772575250836
2023-05-06T23:29:10.034Z,11.749163879598662
2023-05-06T23:35:29.374Z,8.357859531772576
2023-05-06T23:41:48.953Z,9.68561872909699
2023-05-06T23:51:07.334Z,10.240802675585284
2023-05-06T23:57:28.374Z,8.474916387959865
